首页
METAR-TAF:

METAR-TAF

机场 :

恩賈梅納, 乍得

恩贾梅纳国际机场

纬度: 12-08N, 经度: 015-02E, 海拔: 295米

当前天气观测

该预报发布于1小时和10分钟前的23:00 UTC
风速8节,风向北转东北
温度 20°C
湿度 13%
气压 1012 hPa
能見度: 6000

METAR: FTTJ 172300Z 02008KT 6000 NSC 20/M09 Q1012 NOSIG

时间: 01:10 (00:10 UTC)

预报

该预报发布于28分钟前的23:42 UTC
预报有效从18日的 00点(UTC)到 19日的 06点(UTC)
风速7节,风向
能見度: 8000

TAF: FTTJ 172342Z 1800/1906 01007KT 8000 NSC

超过4000个机场的气象观测和天气预报(METAR&TAF报告)。

可查询的气象台以黄色和红色小点在地图上表示。

将鼠标移到小点上方,可查看气象台名称。

然后点击查看天气观测和预报。

如需切换地图:点击带黑十字的绿色按钮放大地图;点击带横线的绿色按钮缩小地图;或者点击绿色箭头查看邻近地区的地图。


METAR-TAF: